sensor_id;sensor_type;location;lat;lon;timestamp;temperature;humidity
67862;DHT22;54665;51.462;6.698;2023-03-11T00:00:07;2.17;86.89
67862;DHT22;54665;51.462;6.698;2023-03-11T00:02:38;2.20;87.09
67862;DHT22;54665;51.462;6.698;2023-03-11T00:05:05;2.14;86.70
67862;DHT22;54665;51.462;6.698;2023-03-11T00:07:30;1.99;87.20
67862;DHT22;54665;51.462;6.698;2023-03-11T00:09:56;1.87;87.07
67862;DHT22;54665;51.462;6.698;2023-03-11T00:12:21;2.02;86.93
67862;DHT22;54665;51.462;6.698;2023-03-11T00:14:46;1.92;86.58
67862;DHT22;54665;51.462;6.698;2023-03-11T00:17:12;1.92;86.90
67862;DHT22;54665;51.462;6.698;2023-03-11T00:19:37;2.00;86.75
67862;DHT22;54665;51.462;6.698;2023-03-11T00:22:03;2.10;86.81
67862;DHT22;54665;51.462;6.698;2023-03-11T00:24:28;2.10;86.82
67862;DHT22;54665;51.462;6.698;2023-03-11T00:26:53;1.98;86.68
67862;DHT22;54665;51.462;6.698;2023-03-11T00:29:19;2.20;86.51
67862;DHT22;54665;51.462;6.698;2023-03-11T00:31:44;2.17;86.42
67862;DHT22;54665;51.462;6.698;2023-03-11T00:34:09;2.09;86.00
67862;DHT22;54665;51.462;6.698;2023-03-11T00:36:35;2.17;86.31
67862;DHT22;54665;51.462;6.698;2023-03-11T00:39:02;2.02;86.75
67862;DHT22;54665;51.462;6.698;2023-03-11T00:41:31;2.11;86.16
67862;DHT22;54665;51.462;6.698;2023-03-11T00:43:57;2.16;86.33
67862;DHT22;54665;51.462;6.698;2023-03-11T00:46:23;2.21;85.94
67862;DHT22;54665;51.462;6.698;2023-03-11T00:48:51;1.92;85.73
67862;DHT22;54665;51.462;6.698;2023-03-11T00:51:17;2.09;85.83
67862;DHT22;54665;51.462;6.698;2023-03-11T00:53:43;2.30;86.03
67862;DHT22;54665;51.462;6.698;2023-03-11T00:56:10;2.07;85.81
67862;DHT22;54665;51.462;6.698;2023-03-11T00:58:39;2.33;85.63
67862;DHT22;54665;51.462;6.698;2023-03-11T01:01:16;2.36;85.10
67862;DHT22;54665;51.462;6.698;2023-03-11T01:03:42;2.24;84.93
67862;DHT22;54665;51.462;6.698;2023-03-11T01:06:09;2.30;84.96
67862;DHT22;54665;51.462;6.698;2023-03-11T01:08:34;2.31;85.40
67862;DHT22;54665;51.462;6.698;2023-03-11T01:11:00;2.21;84.89
67862;DHT22;54665;51.462;6.698;2023-03-11T01:13:27;2.13;85.55
67862;DHT22;54665;51.462;6.698;2023-03-11T01:15:53;2.34;84.76
67862;DHT22;54665;51.462;6.698;2023-03-11T01:18:20;2.31;85.04
67862;DHT22;54665;51.462;6.698;2023-03-11T01:20:46;2.30;85.35
67862;DHT22;54665;51.462;6.698;2023-03-11T01:23:12;2.40;85.11
67862;DHT22;54665;51.462;6.698;2023-03-11T01:25:38;2.44;84.45
67862;DHT22;54665;51.462;6.698;2023-03-11T01:28:04;2.31;84.70
67862;DHT22;54665;51.462;6.698;2023-03-11T01:30:29;2.24;84.57
67862;DHT22;54665;51.462;6.698;2023-03-11T01:32:56;2.45;84.41
67862;DHT22;54665;51.462;6.698;2023-03-11T01:35:23;2.26;84.49
67862;DHT22;54665;51.462;6.698;2023-03-11T01:37:49;2.24;84.46
67862;DHT22;54665;51.462;6.698;2023-03-11T01:40:22;2.05;85.12
67862;DHT22;54665;51.462;6.698;2023-03-11T01:42:48;1.96;85.27
67862;DHT22;54665;51.462;6.698;2023-03-11T01:45:38;1.85;85.58
67862;DHT22;54665;51.462;6.698;2023-03-11T01:48:07;1.82;85.48
67862;DHT22;54665;51.462;6.698;2023-03-11T01:50:41;1.70;85.50
67862;DHT22;54665;51.462;6.698;2023-03-11T01:53:08;1.66;85.72
67862;DHT22;54665;51.462;6.698;2023-03-11T01:55:35;1.49;86.25
67862;DHT22;54665;51.462;6.698;2023-03-11T01:58:05;1.49;86.56
67862;DHT22;54665;51.462;6.698;2023-03-11T02:00:31;1.45;86.71
67862;DHT22;54665;51.462;6.698;2023-03-11T02:02:59;1.44;86.63
67862;DHT22;54665;51.462;6.698;2023-03-11T02:05:25;1.39;86.28
67862;DHT22;54665;51.462;6.698;2023-03-11T02:07:52;1.27;86.28
67862;DHT22;54665;51.462;6.698;2023-03-11T02:10:20;1.42;85.96
67862;DHT22;54665;51.462;6.698;2023-03-11T02:12:47;1.27;85.77
67862;DHT22;54665;51.462;6.698;2023-03-11T02:15:21;1.35;85.71
67862;DHT22;54665;51.462;6.698;2023-03-11T02:17:48;1.31;85.09
67862;DHT22;54665;51.462;6.698;2023-03-11T02:20:35;1.21;84.53
67862;DHT22;54665;51.462;6.698;2023-03-11T02:23:08;1.31;84.33
67862;DHT22;54665;51.462;6.698;2023-03-11T02:28:19;1.14;84.26
67862;DHT22;54665;51.462;6.698;2023-03-11T02:30:46;1.13;84.07
67862;DHT22;54665;51.462;6.698;2023-03-11T02:33:13;1.20;83.75
67862;DHT22;54665;51.462;6.698;2023-03-11T02:35:40;1.04;83.55
67862;DHT22;54665;51.462;6.698;2023-03-11T02:38:06;1.11;82.84
67862;DHT22;54665;51.462;6.698;2023-03-11T02:40:40;1.16;82.29
67862;DHT22;54665;51.462;6.698;2023-03-11T02:43:10;1.23;81.52
67862;DHT22;54665;51.462;6.698;2023-03-11T02:45:38;1.21;81.52
67862;DHT22;54665;51.462;6.698;2023-03-11T02:48:06;1.24;82.10
67862;DHT22;54665;51.462;6.698;2023-03-11T02:50:33;1.14;81.92
67862;DHT22;54665;51.462;6.698;2023-03-11T02:53:04;1.09;81.86
67862;DHT22;54665;51.462;6.698;2023-03-11T02:55:30;1.13;82.07
67862;DHT22;54665;51.462;6.698;2023-03-11T02:57:56;1.14;81.92
67862;DHT22;54665;51.462;6.698;2023-03-11T03:00:21;1.09;81.38
67862;DHT22;54665;51.462;6.698;2023-03-11T03:02:59;1.17;81.60
67862;DHT22;54665;51.462;6.698;2023-03-11T03:05:26;1.05;81.30
67862;DHT22;54665;51.462;6.698;2023-03-11T03:07:51;1.04;81.61
67862;DHT22;54665;51.462;6.698;2023-03-11T03:10:18;1.11;81.17
67862;DHT22;54665;51.462;6.698;2023-03-11T03:12:44;1.11;81.08
67862;DHT22;54665;51.462;6.698;2023-03-11T03:15:10;1.18;80.58
67862;DHT22;54665;51.462;6.698;2023-03-11T03:17:36;1.24;80.59
67862;DHT22;54665;51.462;6.698;2023-03-11T03:20:04;1.14;79.95
67862;DHT22;54665;51.462;6.698;2023-03-11T03:22:36;1.24;79.81
67862;DHT22;54665;51.462;6.698;2023-03-11T03:25:01;1.14;80.27
67862;DHT22;54665;51.462;6.698;2023-03-11T03:27:28;1.01;80.39
67862;DHT22;54665;51.462;6.698;2023-03-11T03:29:54;1.08;80.27
67862;DHT22;54665;51.462;6.698;2023-03-11T03:32:20;1.11;80.35
67862;DHT22;54665;51.462;6.698;2023-03-11T03:34:45;1.03;80.05
67862;DHT22;54665;51.462;6.698;2023-03-11T03:37:11;1.09;80.34
67862;DHT22;54665;51.462;6.698;2023-03-11T03:39:36;1.00;80.14
67862;DHT22;54665;51.462;6.698;2023-03-11T03:42:02;1.03;80.57
67862;DHT22;54665;51.462;6.698;2023-03-11T03:44:30;1.00;80.30
67862;DHT22;54665;51.462;6.698;2023-03-11T03:46:57;1.03;80.54
67862;DHT22;54665;51.462;6.698;2023-03-11T03:49:22;0.88;80.54
67862;DHT22;54665;51.462;6.698;2023-03-11T03:51:47;0.90;80.41
67862;DHT22;54665;51.462;6.698;2023-03-11T03:54:32;0.88;80.70
67862;DHT22;54665;51.462;6.698;2023-03-11T03:56:57;1.03;80.07
67862;DHT22;54665;51.462;6.698;2023-03-11T03:59:23;1.14;79.73
67862;DHT22;54665;51.462;6.698;2023-03-11T04:01:53;0.88;80.65
67862;DHT22;54665;51.462;6.698;2023-03-11T04:04:20;0.88;81.09
67862;DHT22;54665;51.462;6.698;2023-03-11T04:06:46;0.96;80.41
67862;DHT22;54665;51.462;6.698;2023-03-11T04:09:11;0.87;80.31
67862;DHT22;54665;51.462;6.698;2023-03-11T04:11:37;0.90;80.36
67862;DHT22;54665;51.462;6.698;2023-03-11T04:14:04;0.97;79.91
67862;DHT22;54665;51.462;6.698;2023-03-11T04:16:33;0.86;79.69
67862;DHT22;54665;51.462;6.698;2023-03-11T04:19:03;0.86;79.98
67862;DHT22;54665;51.462;6.698;2023-03-11T04:21:31;0.97;79.56
67862;DHT22;54665;51.462;6.698;2023-03-11T04:23:56;0.77;80.24
67862;DHT22;54665;51.462;6.698;2023-03-11T04:26:27;0.66;80.84
67862;DHT22;54665;51.462;6.698;2023-03-11T04:28:53;0.62;81.01
67862;DHT22;54665;51.462;6.698;2023-03-11T04:31:18;0.57;81.22
67862;DHT22;54665;51.462;6.698;2023-03-11T04:33:44;0.45;81.68
67862;DHT22;54665;51.462;6.698;2023-03-11T04:36:10;0.33;81.96
67862;DHT22;54665;51.462;6.698;2023-03-11T04:38:37;0.33;82.08
67862;DHT22;54665;51.462;6.698;2023-03-11T04:41:05;0.41;81.95
67862;DHT22;54665;51.462;6.698;2023-03-11T04:43:32;0.26;82.15
67862;DHT22;54665;51.462;6.698;2023-03-11T04:45:58;0.43;82.08
67862;DHT22;54665;51.462;6.698;2023-03-11T04:48:24;0.41;81.88
67862;DHT22;54665;51.462;6.698;2023-03-11T04:50:51;0.52;82.06
67862;DHT22;54665;51.462;6.698;2023-03-11T04:53:17;0.63;82.01
67862;DHT22;54665;51.462;6.698;2023-03-11T04:55:43;0.72;81.34
67862;DHT22;54665;51.462;6.698;2023-03-11T04:58:08;0.90;80.78
67862;DHT22;54665;51.462;6.698;2023-03-11T05:00:36;1.07;80.33
67862;DHT22;54665;51.462;6.698;2023-03-11T05:03:06;1.09;79.69
67862;DHT22;54665;51.462;6.698;2023-03-11T05:05:31;1.27;79.45
67862;DHT22;54665;51.462;6.698;2023-03-11T05:07:57;1.25;78.92
67862;DHT22;54665;51.462;6.698;2023-03-11T05:10:23;1.20;78.39
67862;DHT22;54665;51.462;6.698;2023-03-11T05:12:52;1.37;78.44
67862;DHT22;54665;51.462;6.698;2023-03-11T05:15:19;1.34;78.38
67862;DHT22;54665;51.462;6.698;2023-03-11T05:17:45;1.24;78.39
67862;DHT22;54665;51.462;6.698;2023-03-11T05:20:11;1.20;78.76
67862;DHT22;54665;51.462;6.698;2023-03-11T05:22:37;1.07;79.21
67862;DHT22;54665;51.462;6.698;2023-03-11T05:25:04;1.00;79.00
67862;DHT22;54665;51.462;6.698;2023-03-11T05:27:30;0.94;78.90
67862;DHT22;54665;51.462;6.698;2023-03-11T05:29:56;0.77;79.18
67862;DHT22;54665;51.462;6.698;2023-03-11T05:32:23;0.62;79.69
67862;DHT22;54665;51.462;6.698;2023-03-11T05:34:50;0.75;79.75
67862;DHT22;54665;51.462;6.698;2023-03-11T05:37:17;0.73;80.24
67862;DHT22;54665;51.462;6.698;2023-03-11T05:39:43;0.69;80.32
67862;DHT22;54665;51.462;6.698;2023-03-11T05:42:10;0.77;79.76
67862;DHT22;54665;51.462;6.698;2023-03-11T05:44:36;0.80;79.57
67862;DHT22;54665;51.462;6.698;2023-03-11T05:47:02;0.88;79.72
67862;DHT22;54665;51.462;6.698;2023-03-11T05:49:28;0.93;79.76
67862;DHT22;54665;51.462;6.698;2023-03-11T05:51:54;0.93;79.33
67862;DHT22;54665;51.462;6.698;2023-03-11T05:54:20;0.98;79.20
67862;DHT22;54665;51.462;6.698;2023-03-11T05:56:48;1.11;79.34
67862;DHT22;54665;51.462;6.698;2023-03-11T05:59:15;1.08;79.13
67862;DHT22;54665;51.462;6.698;2023-03-11T06:01:41;1.04;79.27
67862;DHT22;54665;51.462;6.698;2023-03-11T06:04:08;1.08;78.67
67862;DHT22;54665;51.462;6.698;2023-03-11T06:06:33;0.90;79.37
67862;DHT22;54665;51.462;6.698;2023-03-11T06:08:59;0.96;79.66
67862;DHT22;54665;51.462;6.698;2023-03-11T06:11:27;0.81;79.68
67862;DHT22;54665;51.462;6.698;2023-03-11T06:13:55;0.67;80.19
67862;DHT22;54665;51.462;6.698;2023-03-11T06:16:22;0.53;80.76
67862;DHT22;54665;51.462;6.698;2023-03-11T06:18:49;0.50;81.20
67862;DHT22;54665;51.462;6.698;2023-03-11T06:21:20;0.43;81.21
67862;DHT22;54665;51.462;6.698;2023-03-11T06:23:46;0.46;81.15
67862;DHT22;54665;51.462;6.698;2023-03-11T06:26:15;0.39;81.40
67862;DHT22;54665;51.462;6.698;2023-03-11T06:28:43;0.45;81.37
67862;DHT22;54665;51.462;6.698;2023-03-11T06:31:15;0.43;81.03
67862;DHT22;54665;51.462;6.698;2023-03-11T06:33:41;0.39;81.21
67862;DHT22;54665;51.462;6.698;2023-03-11T06:36:07;0.26;81.68
67862;DHT22;54665;51.462;6.698;2023-03-11T06:38:33;0.22;81.95
67862;DHT22;54665;51.462;6.698;2023-03-11T06:41:03;0.32;81.53
67862;DHT22;54665;51.462;6.698;2023-03-11T06:43:30;0.33;81.94
67862;DHT22;54665;51.462;6.698;2023-03-11T06:45:57;0.39;81.66
67862;DHT22;54665;51.462;6.698;2023-03-11T06:48:24;0.28;81.42
67862;DHT22;54665;51.462;6.698;2023-03-11T06:50:59;0.33;81.81
67862;DHT22;54665;51.462;6.698;2023-03-11T06:53:28;0.38;81.61
67862;DHT22;54665;51.462;6.698;2023-03-11T06:56:01;0.38;81.80
67862;DHT22;54665;51.462;6.698;2023-03-11T06:58:30;0.43;81.74
67862;DHT22;54665;51.462;6.698;2023-03-11T07:01:00;0.56;81.68
67862;DHT22;54665;51.462;6.698;2023-03-11T07:03:27;0.69;80.80
67862;DHT22;54665;51.462;6.698;2023-03-11T07:05:52;0.83;80.63
67862;DHT22;54665;51.462;6.698;2023-03-11T07:08:18;0.79;80.81
67862;DHT22;54665;51.462;6.698;2023-03-11T07:10:43;0.91;80.59
67862;DHT22;54665;51.462;6.698;2023-03-11T07:13:09;0.87;79.98
67862;DHT22;54665;51.462;6.698;2023-03-11T07:15:34;1.18;79.33
67862;DHT22;54665;51.462;6.698;2023-03-11T07:18:00;1.25;79.53
67862;DHT22;54665;51.462;6.698;2023-03-11T07:20:25;1.16;78.93
67862;DHT22;54665;51.462;6.698;2023-03-11T07:22:51;1.11;78.32
67862;DHT22;54665;51.462;6.698;2023-03-11T07:25:17;1.34;77.87
67862;DHT22;54665;51.462;6.698;2023-03-11T07:27:42;1.45;78.02
67862;DHT22;54665;51.462;6.698;2023-03-11T07:30:08;1.68;77.36
67862;DHT22;54665;51.462;6.698;2023-03-11T07:32:34;1.70;76.85
67862;DHT22;54665;51.462;6.698;2023-03-11T07:34:59;1.52;76.52
67862;DHT22;54665;51.462;6.698;2023-03-11T07:37:25;1.89;76.88
67862;DHT22;54665;51.462;6.698;2023-03-11T07:39:50;2.03;76.09
67862;DHT22;54665;51.462;6.698;2023-03-11T07:42:15;2.07;76.01
67862;DHT22;54665;51.462;6.698;2023-03-11T07:44:41;1.89;76.02
67862;DHT22;54665;51.462;6.698;2023-03-11T07:47:06;2.07;75.64
67862;DHT22;54665;51.462;6.698;2023-03-11T07:49:33;2.20;76.47
67862;DHT22;54665;51.462;6.698;2023-03-11T07:51:59;2.37;74.89
67862;DHT22;54665;51.462;6.698;2023-03-11T07:54:25;3.03;74.40
67862;DHT22;54665;51.462;6.698;2023-03-11T07:56:50;4.11;68.90
67862;DHT22;54665;51.462;6.698;2023-03-11T07:59:15;5.23;65.40
67862;DHT22;54665;51.462;6.698;2023-03-11T08:01:41;5.60;65.03
67862;DHT22;54665;51.462;6.698;2023-03-11T08:04:12;5.27;64.60
67862;DHT22;54665;51.462;6.698;2023-03-11T08:06:38;5.89;63.83
67862;DHT22;54665;51.462;6.698;2023-03-11T08:09:07;5.88;63.11
67862;DHT22;54665;51.462;6.698;2023-03-11T08:11:33;5.78;62.25
67862;DHT22;54665;51.462;6.698;2023-03-11T08:13:58;5.96;62.30
67862;DHT22;54665;51.462;6.698;2023-03-11T08:16:24;5.00;62.49
67862;DHT22;54665;51.462;6.698;2023-03-11T08:18:51;5.39;62.96
67862;DHT22;54665;51.462;6.698;2023-03-11T08:21:19;5.54;61.03
67862;DHT22;54665;51.462;6.698;2023-03-11T08:23:46;5.68;61.11
67862;DHT22;54665;51.462;6.698;2023-03-11T08:26:14;5.80;59.71
67862;DHT22;54665;51.462;6.698;2023-03-11T08:28:39;6.37;59.87
67862;DHT22;54665;51.462;6.698;2023-03-11T08:33:41;7.63;56.09
67862;DHT22;54665;51.462;6.698;2023-03-11T08:36:07;7.59;56.30
67862;DHT22;54665;51.462;6.698;2023-03-11T08:38:33;8.62;54.67
67862;DHT22;54665;51.462;6.698;2023-03-11T08:40:58;8.04;54.34
67862;DHT22;54665;51.462;6.698;2023-03-11T08:43:25;8.41;53.40
67862;DHT22;54665;51.462;6.698;2023-03-11T08:45:50;9.25;51.93
67862;DHT22;54665;51.462;6.698;2023-03-11T08:48:15;7.83;53.98
67862;DHT22;54665;51.462;6.698;2023-03-11T08:50:42;7.87;54.47
67862;DHT22;54665;51.462;6.698;2023-03-11T08:53:07;8.22;51.39
67862;DHT22;54665;51.462;6.698;2023-03-11T08:55:33;8.09;52.46
67862;DHT22;54665;51.462;6.698;2023-03-11T08:57:58;7.97;52.63
67862;DHT22;54665;51.462;6.698;2023-03-11T09:00:24;8.16;53.77
67862;DHT22;54665;51.462;6.698;2023-03-11T09:02:49;8.52;53.08
67862;DHT22;54665;51.462;6.698;2023-03-11T09:05:15;8.77;52.29
67862;DHT22;54665;51.462;6.698;2023-03-11T09:07:40;8.83;52.06
67862;DHT22;54665;51.462;6.698;2023-03-11T09:10:06;8.93;50.00
67862;DHT22;54665;51.462;6.698;2023-03-11T09:12:31;8.79;50.91
67862;DHT22;54665;51.462;6.698;2023-03-11T09:14:57;8.21;51.09
67862;DHT22;54665;51.462;6.698;2023-03-11T09:17:22;7.32;53.66
67862;DHT22;54665;51.462;6.698;2023-03-11T09:19:48;7.91;50.71
67862;DHT22;54665;51.462;6.698;2023-03-11T09:22:13;8.36;49.02
67862;DHT22;54665;51.462;6.698;2023-03-11T09:24:39;8.12;49.32
67862;DHT22;54665;51.462;6.698;2023-03-11T09:27:04;7.95;51.57
67862;DHT22;54665;51.462;6.698;2023-03-11T09:29:30;8.50;48.74
67862;DHT22;54665;51.462;6.698;2023-03-11T09:31:56;8.96;47.40
67862;DHT22;54665;51.462;6.698;2023-03-11T09:34:21;7.81;46.62
67862;DHT22;54665;51.462;6.698;2023-03-11T09:36:47;7.57;48.37
67862;DHT22;54665;51.462;6.698;2023-03-11T09:39:12;7.13;50.83
67862;DHT22;54665;51.462;6.698;2023-03-11T09:41:57;7.56;48.18
67862;DHT22;54665;51.462;6.698;2023-03-11T09:44:45;8.57;44.69
67862;DHT22;54665;51.462;6.698;2023-03-11T09:50:39;8.99;45.55
67862;DHT22;54665;51.462;6.698;2023-03-11T09:55:34;8.25;45.37
67862;DHT22;54665;51.462;6.698;2023-03-11T09:58:09;8.70;42.49
67862;DHT22;54665;51.462;6.698;2023-03-11T10:00:35;9.48;40.55
67862;DHT22;54665;51.462;6.698;2023-03-11T10:03:01;8.83;43.24
67862;DHT22;54665;51.462;6.698;2023-03-11T10:05:28;8.09;42.99
67862;DHT22;54665;51.462;6.698;2023-03-11T10:08:03;7.87;44.69
67862;DHT22;54665;51.462;6.698;2023-03-11T10:10:33;7.59;48.99
67862;DHT22;54665;51.462;6.698;2023-03-11T10:13:09;6.75;48.48
67862;DHT22;54665;51.462;6.698;2023-03-11T10:15:49;6.41;48.38
67862;DHT22;54665;51.462;6.698;2023-03-11T10:21:19;6.29;48.06
67862;DHT22;54665;51.462;6.698;2023-03-11T10:29:16;8.26;45.51
67862;DHT22;54665;51.462;6.698;2023-03-11T10:31:49;7.99;43.11
67862;DHT22;54665;51.462;6.698;2023-03-11T10:37:02;8.46;45.10
67862;DHT22;54665;51.462;6.698;2023-03-11T10:39:32;7.92;43.98
67862;DHT22;54665;51.462;6.698;2023-03-11T10:42:05;7.84;43.86
67862;DHT22;54665;51.462;6.698;2023-03-11T10:44:37;7.03;45.19
67862;DHT22;54665;51.462;6.698;2023-03-11T10:47:03;7.26;46.51
67862;DHT22;54665;51.462;6.698;2023-03-11T10:49:29;7.19;45.74
67862;DHT22;54665;51.462;6.698;2023-03-11T10:51:55;7.63;44.73
67862;DHT22;54665;51.462;6.698;2023-03-11T10:56:54;7.71;45.37
67862;DHT22;54665;51.462;6.698;2023-03-11T10:59:33;7.74;45.04
67862;DHT22;54665;51.462;6.698;2023-03-11T11:04:42;7.67;45.71
67862;DHT22;54665;51.462;6.698;2023-03-11T11:07:37;7.77;44.11
67862;DHT22;54665;51.462;6.698;2023-03-11T11:12:55;7.73;44.24
67862;DHT22;54665;51.462;6.698;2023-03-11T11:15:31;7.90;43.98
67862;DHT22;54665;51.462;6.698;2023-03-11T11:17:59;8.35;43.62
67862;DHT22;54665;51.462;6.698;2023-03-11T11:20:27;7.85;44.79
67862;DHT22;54665;51.462;6.698;2023-03-11T11:22:58;6.96;47.79
67862;DHT22;54665;51.462;6.698;2023-03-11T11:25:34;7.36;45.04
67862;DHT22;54665;51.462;6.698;2023-03-11T11:35:56;8.81;43.83
67862;DHT22;54665;51.462;6.698;2023-03-11T11:38:24;7.85;46.50
67862;DHT22;54665;51.462;6.698;2023-03-11T11:40:51;7.99;44.25
67862;DHT22;54665;51.462;6.698;2023-03-11T11:43:19;8.06;44.50
67862;DHT22;54665;51.462;6.698;2023-03-11T11:45:48;8.62;42.53
67862;DHT22;54665;51.462;6.698;2023-03-11T11:48:19;9.23;42.34
67862;DHT22;54665;51.462;6.698;2023-03-11T11:50:50;9.66;42.13
67862;DHT22;54665;51.462;6.698;2023-03-11T11:55:57;9.11;40.94
67862;DHT22;54665;51.462;6.698;2023-03-11T11:58:23;9.28;44.28
67862;DHT22;54665;51.462;6.698;2023-03-11T12:01:01;9.01;45.45
67862;DHT22;54665;51.462;6.698;2023-03-11T12:04:11;9.05;40.78
67862;DHT22;54665;51.462;6.698;2023-03-11T12:12:18;8.69;43.27
67862;DHT22;54665;51.462;6.698;2023-03-11T12:15:13;8.06;45.86
67862;DHT22;54665;51.462;6.698;2023-03-11T12:17:42;7.88;45.13
67862;DHT22;54665;51.462;6.698;2023-03-11T12:20:18;7.39;44.33
67862;DHT22;54665;51.462;6.698;2023-03-11T12:25:35;7.90;45.38
67862;DHT22;54665;51.462;6.698;2023-03-11T12:28:15;7.97;47.86
67862;DHT22;54665;51.462;6.698;2023-03-11T12:30:54;7.64;49.09
67862;DHT22;54665;51.462;6.698;2023-03-11T12:33:32;7.77;49.26
67862;DHT22;54665;51.462;6.698;2023-03-11T12:35:59;7.94;49.73
67862;DHT22;54665;51.462;6.698;2023-03-11T12:38:32;8.67;43.96
67862;DHT22;54665;51.462;6.698;2023-03-11T12:41:04;8.38;44.86
67862;DHT22;54665;51.462;6.698;2023-03-11T12:48:43;8.21;44.89
67862;DHT22;54665;51.462;6.698;2023-03-11T12:56:57;9.21;42.65
67862;DHT22;54665;51.462;6.698;2023-03-11T13:08:46;9.31;42.62
67862;DHT22;54665;51.462;6.698;2023-03-11T13:11:26;9.82;42.02
67862;DHT22;54665;51.462;6.698;2023-03-11T13:14:08;9.86;43.24
67862;DHT22;54665;51.462;6.698;2023-03-11T13:16:37;9.78;40.50
67862;DHT22;54665;51.462;6.698;2023-03-11T13:21:54;9.35;42.25
67862;DHT22;54665;51.462;6.698;2023-03-11T13:26:56;9.20;41.87
67862;DHT22;54665;51.462;6.698;2023-03-11T13:35:34;10.34;40.77
67862;DHT22;54665;51.462;6.698;2023-03-11T13:38:33;10.07;40.27
67862;DHT22;54665;51.462;6.698;2023-03-11T13:41:02;10.29;41.29
67862;DHT22;54665;51.462;6.698;2023-03-11T13:43:28;10.03;40.40
67862;DHT22;54665;51.462;6.698;2023-03-11T13:46:05;10.50;43.01
67862;DHT22;54665;51.462;6.698;2023-03-11T13:48:39;10.58;41.55
67862;DHT22;54665;51.462;6.698;2023-03-11T13:51:41;10.57;41.05
67862;DHT22;54665;51.462;6.698;2023-03-11T13:54:24;10.82;38.41
67862;DHT22;54665;51.462;6.698;2023-03-11T13:56:58;10.84;38.93
67862;DHT22;54665;51.462;6.698;2023-03-11T13:59:29;11.01;40.68
67862;DHT22;54665;51.462;6.698;2023-03-11T14:01:59;10.99;38.82
67862;DHT22;54665;51.462;6.698;2023-03-11T14:04:30;10.00;37.86
67862;DHT22;54665;51.462;6.698;2023-03-11T14:06:57;9.68;40.52
67862;DHT22;54665;51.462;6.698;2023-03-11T14:09:26;10.24;39.13
67862;DHT22;54665;51.462;6.698;2023-03-11T14:11:53;10.36;41.71
67862;DHT22;54665;51.462;6.698;2023-03-11T14:16:52;10.43;39.16
67862;DHT22;54665;51.462;6.698;2023-03-11T14:19:18;10.07;39.69
67862;DHT22;54665;51.462;6.698;2023-03-11T14:21:45;9.24;39.96
67862;DHT22;54665;51.462;6.698;2023-03-11T14:24:20;8.77;40.72
67862;DHT22;54665;51.462;6.698;2023-03-11T14:26:47;8.56;41.42
67862;DHT22;54665;51.462;6.698;2023-03-11T14:29:16;8.43;43.16
67862;DHT22;54665;51.462;6.698;2023-03-11T14:31:44;8.62;42.08
67862;DHT22;54665;51.462;6.698;2023-03-11T14:39:31;8.24;44.35
67862;DHT22;54665;51.462;6.698;2023-03-11T14:44:34;8.36;44.68
67862;DHT22;54665;51.462;6.698;2023-03-11T14:47:09;8.42;43.82
67862;DHT22;54665;51.462;6.698;2023-03-11T14:49:36;8.59;44.82
67862;DHT22;54665;51.462;6.698;2023-03-11T14:52:07;8.22;44.76
67862;DHT22;54665;51.462;6.698;2023-03-11T14:54:35;7.99;44.13
67862;DHT22;54665;51.462;6.698;2023-03-11T14:57:39;8.49;46.67
67862;DHT22;54665;51.462;6.698;2023-03-11T15:00:14;8.45;44.68
67862;DHT22;54665;51.462;6.698;2023-03-11T15:02:59;8.41;44.34
67862;DHT22;54665;51.462;6.698;2023-03-11T15:05:34;7.83;45.35
67862;DHT22;54665;51.462;6.698;2023-03-11T15:08:03;7.51;45.72
67862;DHT22;54665;51.462;6.698;2023-03-11T15:10:30;7.73;45.80
67862;DHT22;54665;51.462;6.698;2023-03-11T15:13:12;7.92;45.51
67862;DHT22;54665;51.462;6.698;2023-03-11T15:15:39;7.78;46.84
67862;DHT22;54665;51.462;6.698;2023-03-11T15:18:20;8.08;44.87
67862;DHT22;54665;51.462;6.698;2023-03-11T15:21:10;7.78;44.60
67862;DHT22;54665;51.462;6.698;2023-03-11T15:23:36;7.78;44.96
67862;DHT22;54665;51.462;6.698;2023-03-11T15:26:02;7.78;45.36
67862;DHT22;54665;51.462;6.698;2023-03-11T15:28:33;7.91;44.03
67862;DHT22;54665;51.462;6.698;2023-03-11T15:33:46;8.06;46.19
67862;DHT22;54665;51.462;6.698;2023-03-11T15:36:34;7.99;44.65
67862;DHT22;54665;51.462;6.698;2023-03-11T15:41:53;7.99;44.24
67862;DHT22;54665;51.462;6.698;2023-03-11T15:46:50;7.99;44.86
67862;DHT22;54665;51.462;6.698;2023-03-11T15:49:15;8.09;46.26
67862;DHT22;54665;51.462;6.698;2023-03-11T15:51:41;7.46;44.52
67862;DHT22;54665;51.462;6.698;2023-03-11T15:54:06;7.77;44.44
67862;DHT22;54665;51.462;6.698;2023-03-11T15:56:32;7.70;45.76
67862;DHT22;54665;51.462;6.698;2023-03-11T15:58:58;7.67;45.29
67862;DHT22;54665;51.462;6.698;2023-03-11T16:01:23;7.39;47.44
67862;DHT22;54665;51.462;6.698;2023-03-11T16:03:53;7.47;44.59
67862;DHT22;54665;51.462;6.698;2023-03-11T16:06:19;7.43;46.25
67862;DHT22;54665;51.462;6.698;2023-03-11T16:08:46;7.53;46.63
67862;DHT22;54665;51.462;6.698;2023-03-11T16:11:12;7.18;46.16
67862;DHT22;54665;51.462;6.698;2023-03-11T16:13:37;7.12;45.11
67862;DHT22;54665;51.462;6.698;2023-03-11T16:16:03;7.24;45.98
67862;DHT22;54665;51.462;6.698;2023-03-11T16:18:28;7.06;46.31
67862;DHT22;54665;51.462;6.698;2023-03-11T16:20:53;7.08;47.41
67862;DHT22;54665;51.462;6.698;2023-03-11T16:23:28;7.03;45.26
67862;DHT22;54665;51.462;6.698;2023-03-11T16:26:00;7.06;44.94
67862;DHT22;54665;51.462;6.698;2023-03-11T16:28:26;7.09;45.06
67862;DHT22;54665;51.462;6.698;2023-03-11T16:30:52;7.22;45.85
67862;DHT22;54665;51.462;6.698;2023-03-11T16:33:17;7.08;44.54
67862;DHT22;54665;51.462;6.698;2023-03-11T16:35:42;7.10;44.85
67862;DHT22;54665;51.462;6.698;2023-03-11T16:38:08;7.06;45.08
67862;DHT22;54665;51.462;6.698;2023-03-11T16:40:34;6.89;46.59
67862;DHT22;54665;51.462;6.698;2023-03-11T16:43:05;6.54;44.87
67862;DHT22;54665;51.462;6.698;2023-03-11T16:45:31;6.65;45.00
67862;DHT22;54665;51.462;6.698;2023-03-11T16:47:57;6.71;45.55
67862;DHT22;54665;51.462;6.698;2023-03-11T16:50:22;6.74;46.18
67862;DHT22;54665;51.462;6.698;2023-03-11T16:52:52;6.65;44.61
67862;DHT22;54665;51.462;6.698;2023-03-11T16:55:18;6.70;45.61
67862;DHT22;54665;51.462;6.698;2023-03-11T16:57:44;6.52;46.99
67862;DHT22;54665;51.462;6.698;2023-03-11T17:00:11;6.34;45.87
67862;DHT22;54665;51.462;6.698;2023-03-11T17:02:37;6.31;46.93
67862;DHT22;54665;51.462;6.698;2023-03-11T17:05:04;6.24;47.09
67862;DHT22;54665;51.462;6.698;2023-03-11T17:07:31;5.97;47.10
67862;DHT22;54665;51.462;6.698;2023-03-11T17:09:57;5.95;47.88
67862;DHT22;54665;51.462;6.698;2023-03-11T17:12:23;5.76;48.62
67862;DHT22;54665;51.462;6.698;2023-03-11T17:14:50;5.59;49.25
67862;DHT22;54665;51.462;6.698;2023-03-11T17:17:16;5.49;50.34
67862;DHT22;54665;51.462;6.698;2023-03-11T17:19:41;5.23;51.40
67862;DHT22;54665;51.462;6.698;2023-03-11T17:22:07;5.17;52.37
67862;DHT22;54665;51.462;6.698;2023-03-11T17:24:32;4.97;52.79
67862;DHT22;54665;51.462;6.698;2023-03-11T17:26:58;4.77;53.31
67862;DHT22;54665;51.462;6.698;2023-03-11T17:29:23;4.63;54.00
67862;DHT22;54665;51.462;6.698;2023-03-11T17:31:49;4.53;54.08